Time;durP1;ratioP1;P1;durP2;ratioP2;P2;SDS_P1;SDS_P2;PMS_P1;PMS_P2;Temp;Humidity;BMP_temperature;BMP_pressure;BME280_temperature;BME280_humidity;BME280_pressure;Samples;Min_cycle;Max_cycle;Signal;HPM_P1;HPM_P2
2022/01/20 00:03:42;;;;;;;11.60;5.50;;;;;;;0.77;100.00;98311.72;104860;1274;71427;-74
2022/01/20 00:27:57;;;;;;;10.60;5.10;;;;;;;0.99;100.00;98285.33;104582;1273;59420;-74
2022/01/20 00:33:49;;;;;;;9.00;4.40;;;;;;;1.08;99.57;98270.26;104929;1274;72459;-74
2022/01/20 00:39:49;;;;;;;10.10;4.80;;;;;;;1.12;99.93;98259.27;104965;1274;73359;-73
2022/01/20 00:42:38;;;;;;;10.10;4.70;;;;;;;1.13;99.69;98255.92;104549;1275;59730;-74
2022/01/20 00:45:27;;;;;;;10.60;4.30;;;;;;;1.13;99.69;98247.38;104737;1274;60607;-73
2022/01/20 00:48:17;;;;;;;9.70;4.50;;;;;;;1.11;99.80;98238.93;104730;1273;73208;-73
2022/01/20 00:51:08;;;;;;;9.10;4.10;;;;;;;1.10;99.78;98238.48;104988;1274;66474;-73
2022/01/20 00:53:57;;;;;;;8.80;4.10;;;;;;;1.10;99.41;98238.67;104790;1273;71473;-74
2022/01/20 00:56:47;;;;;;;9.10;3.90;;;;;;;1.13;99.36;98236.17;104824;1273;59404;-73
2022/01/20 00:59:38;;;;;;;8.30;3.70;;;;;;;1.14;98.87;98232.78;104678;1273;59353;-73
2022/01/20 01:02:27;;;;;;;10.70;4.10;;;;;;;1.17;98.22;98231.73;105037;1274;72616;-74
2022/01/20 01:05:16;;;;;;;9.70;4.00;;;;;;;1.22;97.84;98229.98;104781;1274;67854;-74
2022/01/20 01:08:06;;;;;;;17.00;4.40;;;;;;;1.24;96.28;98226.17;104668;1273;73206;-73
2022/01/20 01:10:56;;;;;;;14.30;3.70;;;;;;;1.27;94.69;98221.25;104659;1273;59460;-73
2022/01/20 01:13:47;;;;;;;14.90;4.10;;;;;;;1.28;93.68;98221.40;104809;1274;60693;-73
2022/01/20 01:20:00;;;;;;;12.60;3.70;;;;;;;1.25;92.66;98224.94;104734;1274;72977;-73
2022/01/20 01:22:54;;;;;;;11.30;3.40;;;;;;;1.10;90.41;98217.85;104768;1274;72140;-74
2022/01/20 01:25:43;;;;;;;12.40;3.20;;;;;;;1.07;89.95;98215.30;104808;1274;59433;-74
2022/01/20 01:28:32;;;;;;;15.10;3.70;;;;;;;1.00;89.55;98219.21;104557;1274;60984;-74
2022/01/20 01:31:56;;;;;;;10.50;2.90;;;;;;;0.99;89.02;98206.75;104703;1273;71376;-74
2022/01/20 01:34:40;;;;;;;12.40;2.80;;;;;;;0.99;88.75;98202.73;104691;1273;68469;-74
2022/01/20 01:38:24;;;;;;;12.10;2.40;;;;;;;0.98;88.06;98186.20;104890;1274;73134;-73
2022/01/20 01:40:44;;;;;;;14.60;2.90;;;;;;;0.95;87.27;98186.05;105065;1274;59391;-74
2022/01/20 01:43:33;;;;;;;13.10;2.60;;;;;;;0.94;86.08;98182.48;104893;1274;60644;-75
2022/01/20 01:46:24;;;;;;;13.60;2.70;;;;;;;0.93;85.18;98175.04;105054;1273;72529;-75
2022/01/20 01:49:13;;;;;;;14.00;2.60;;;;;;;0.90;83.90;98173.98;104796;1273;69112;-75
2022/01/20 01:52:02;;;;;;;13.00;4.20;;;;;;;0.86;82.77;98170.95;104765;1275;73227;-74
2022/01/20 01:54:54;;;;;;;12.40;2.50;;;;;;;0.82;81.18;98171.41;104562;1274;59433;-75
2022/01/20 01:57:43;;;;;;;15.50;2.80;;;;;;;0.78;78.54;98168.17;104713;1273;60440;-74
2022/01/20 02:00:40;;;;;;;9.30;1.90;;;;;;;0.78;78.03;98158.01;104765;1273;72732;-75
2022/01/20 02:03:33;;;;;;;10.40;2.60;;;;;;;0.81;74.89;98152.95;104626;1274;69155;-75
2022/01/20 02:06:50;;;;;;;9.80;1.90;;;;;;;0.85;74.52;98149.87;104706;1274;71181;-74
2022/01/20 02:19:18;;;;;;;13.80;1.90;;;;;;;0.90;73.97;98159.88;105015;1273;68478;-75
2022/01/20 02:22:13;;;;;;;10.40;1.90;;;;;;;0.88;73.22;98160.36;104826;1273;73271;-74
2022/01/20 02:25:28;;;;;;;11.80;2.20;;;;;;;0.84;73.78;98156.41;105156;1273;59329;-74
2022/01/20 02:28:17;;;;;;;10.80;1.90;;;;;;;0.80;74.01;98144.46;104530;1273;61218;-75
2022/01/20 02:31:09;;;;;;;10.30;2.20;;;;;;;0.78;74.39;98144.42;104776;1273;72699;-75
2022/01/20 02:34:10;;;;;;;12.20;2.30;;;;;;;0.74;74.58;98138.91;104492;1273;68144;-74
2022/01/20 02:37:10;;;;;;;10.90;2.30;;;;;;;0.71;75.88;98137.21;104171;1273;1003491;-74
2022/01/20 02:46:21;;;;;;;9.40;2.10;;;;;;;0.62;76.45;98133.80;104714;1273;72632;-75
2022/01/20 02:49:18;;;;;;;11.20;2.10;;;;;;;0.62;76.60;98129.11;104628;1273;68763;-75
2022/01/20 02:52:07;;;;;;;10.00;2.10;;;;;;;0.62;76.18;98124.18;104594;1274;72896;-74
2022/01/20 02:54:57;;;;;;;16.50;2.90;;;;;;;0.64;76.22;98126.85;104731;1274;59207;-75
2022/01/20 02:57:48;;;;;;;8.90;2.00;;;;;;;0.67;76.07;98128.94;104758;1274;59558;-75
2022/01/20 03:00:38;;;;;;;8.70;1.70;;;;;;;0.70;76.25;98127.17;104839;1273;72782;-75
2022/01/20 03:03:27;;;;;;;9.60;1.50;;;;;;;0.69;76.43;98127.61;104758;1273;68278;-74
2022/01/20 03:06:18;;;;;;;11.50;2.10;;;;;;;0.71;76.66;98128.49;104738;1273;72701;-74
2022/01/20 03:09:08;;;;;;;11.70;1.80;;;;;;;0.71;77.07;98125.36;104605;1274;59436;-75
2022/01/20 03:11:57;;;;;;;11.70;3.00;;;;;;;0.70;76.99;98128.02;104712;1273;60783;-76
2022/01/20 03:14:46;;;;;;;7.40;2.00;;;;;;;0.70;78.40;98137.99;104663;1273;72259;-76
2022/01/20 03:17:38;;;;;;;11.40;2.20;;;;;;;0.65;79.59;98140.23;104614;1274;68838;-76
2022/01/20 03:20:29;;;;;;;14.00;2.30;;;;;;;0.60;80.10;98130.80;104589;1273;73100;-75
2022/01/20 03:23:18;;;;;;;8.30;1.60;;;;;;;0.55;80.93;98134.10;104585;1274;59345;-75
2022/01/20 03:26:12;;;;;;;12.20;2.10;;;;;;;0.47;83.98;98143.39;104793;1273;59383;-76
2022/01/20 03:29:06;;;;;;;10.80;2.10;;;;;;;0.30;87.77;98156.20;104604;1273;72890;-77
2022/01/20 03:31:55;;;;;;;10.80;2.20;;;;;;;0.12;89.97;98149.84;104650;1274;68173;-76
2022/01/20 03:34:45;;;;;;;13.00;2.00;;;;;;;-0.06;91.08;98143.67;104687;1274;72835;-77
2022/01/20 03:37:36;;;;;;;13.00;2.30;;;;;;;-0.21;91.45;98149.00;104705;1274;59347;-76
2022/01/20 03:40:26;;;;;;;11.10;2.00;;;;;;;-0.29;91.72;98145.84;104602;1273;59463;-75
2022/01/20 03:43:15;;;;;;;11.50;2.30;;;;;;;-0.35;92.46;98136.29;104639;1274;72559;-77
2022/01/20 03:46:11;;;;;;;6.80;1.80;;;;;;;-0.42;92.58;98129.94;104654;1273;66919;-76
2022/01/20 03:49:10;;;;;;;11.30;2.20;;;;;;;-0.48;92.29;98123.50;104916;1273;71789;-76
2022/01/20 03:51:59;;;;;;;16.40;2.30;;;;;;;-0.53;91.92;98120.66;104938;1273;59767;-75
2022/01/20 03:54:49;;;;;;;14.40;2.20;;;;;;;-0.56;91.27;98122.84;104523;1273;60819;-75
2022/01/20 03:57:38;;;;;;;14.20;2.60;;;;;;;-0.60;91.07;98122.34;104767;1274;72955;-75
2022/01/20 04:00:39;;;;;;;12.00;1.80;;;;;;;-0.59;90.68;98129.60;104764;1273;67477;-75
2022/01/20 04:03:38;;;;;;;8.90;1.70;;;;;;;-0.54;90.52;98134.34;104594;1273;73113;-75
2022/01/20 04:06:36;;;;;;;9.00;2.00;;;;;;;-0.51;91.31;98135.56;104525;1273;59261;-75
2022/01/20 04:09:25;;;;;;;11.90;1.60;;;;;;;-0.49;91.65;98140.69;103938;1274;1003067;-75
2022/01/20 04:12:14;;;;;;;14.20;2.70;;;;;;;-0.51;92.24;98141.13;104774;1273;71098;-75
2022/01/20 04:15:08;;;;;;;13.70;2.50;;;;;;;-0.53;92.27;98131.30;104649;1273;67795;-75
2022/01/20 04:18:01;;;;;;;8.50;2.00;;;;;;;-0.52;92.36;98131.81;104557;1274;73356;-75
2022/01/20 04:20:50;;;;;;;12.30;2.10;;;;;;;-0.55;92.00;98122.03;104772;1272;60482;-75
2022/01/20 04:23:44;;;;;;;11.40;2.00;;;;;;;-0.51;91.76;98119.01;104635;1273;60579;-75
2022/01/20 04:26:41;;;;;;;9.10;1.70;;;;;;;-0.51;91.77;98117.96;104691;1273;70692;-75
2022/01/20 04:29:35;;;;;;;11.50;2.00;;;;;;;-0.53;91.95;98111.80;104632;1273;66829;-77
2022/01/20 04:32:25;;;;;;;14.10;1.90;;;;;;;-0.55;91.83;98108.08;104573;1273;71825;-74
2022/01/20 04:35:19;;;;;;;11.40;2.00;;;;;;;-0.56;91.52;98114.45;104732;1274;59398;-73
2022/01/20 04:38:09;;;;;;;10.90;1.90;;;;;;;-0.58;91.06;98107.08;104735;1273;60696;-75
2022/01/20 04:40:58;;;;;;;9.60;2.00;;;;;;;-0.62;90.94;98117.95;104951;1274;71353;-76
2022/01/20 04:43:48;;;;;;;10.80;2.00;;;;;;;-0.65;91.21;98126.02;105183;1274;67286;-75
2022/01/20 04:59:09;;;;;;;6.00;1.60;;;;;;;-0.81;91.48;98119.12;105138;1273;66268;-75
2022/01/20 05:01:59;;;;;;;9.20;1.90;;;;;;;-0.81;91.25;98128.23;105287;1273;72097;-75
2022/01/20 05:05:08;;;;;;;8.20;1.60;;;;;;;-0.82;90.97;98123.91;104619;1273;1003431;-75
2022/01/20 05:08:09;;;;;;;10.90;1.80;;;;;;;-0.81;91.09;98124.17;105185;1274;60451;-75
2022/01/20 05:11:01;;;;;;;9.90;1.80;;;;;;;-0.81;90.93;98113.91;105008;1273;71233;-76
2022/01/20 05:13:53;;;;;;;12.50;2.10;;;;;;;-0.81;90.93;98111.83;104968;1273;65882;-75
2022/01/20 05:16:44;;;;;;;8.30;1.90;;;;;;;-0.82;90.76;98107.71;105032;1273;71675;-76
2022/01/20 05:19:33;;;;;;;9.10;1.80;;;;;;;-0.82;90.57;98117.67;105159;1273;59388;-75
2022/01/20 05:22:22;;;;;;;10.50;1.70;;;;;;;-0.82;90.38;98119.34;104419;1273;1003798;-75
2022/01/20 05:25:17;;;;;;;8.90;1.90;;;;;;;-0.80;89.81;98127.27;104899;1273;71512;-75
2022/01/20 05:28:07;;;;;;;9.60;2.00;;;;;;;-0.78;89.78;98135.66;104954;1273;68249;-75
2022/01/20 05:30:58;;;;;;;11.80;1.80;;;;;;;-0.75;90.14;98143.99;105205;1273;71004;-75
2022/01/20 05:34:15;;;;;;;12.80;2.10;;;;;;;-0.72;90.40;98148.67;105602;1274;59426;-77
2022/01/20 05:37:10;;;;;;;7.50;1.80;;;;;;;-0.69;90.98;98143.45;105088;1273;60763;-75
2022/01/20 05:40:01;;;;;;;8.90;1.80;;;;;;;-0.68;91.67;98138.53;105130;1273;71335;-76
2022/01/20 05:42:59;;;;;;;9.10;1.60;;;;;;;-0.70;92.36;98140.54;104790;1273;66813;-76
2022/01/20 05:45:53;;;;;;;6.40;1.60;;;;;;;-0.76;92.78;98133.62;105272;1273;72797;-77
2022/01/20 05:48:49;;;;;;;10.60;2.20;;;;;;;-0.74;92.83;98141.52;105311;1273;59635;-76
2022/01/20 05:52:07;;;;;;;6.80;1.40;;;;;;;-0.74;92.50;98143.09;105423;1274;59672;-77
2022/01/20 05:55:03;;;;;;;8.90;1.90;;;;;;;-0.74;91.67;98145.14;104872;1272;73255;-76
2022/01/20 05:58:00;;;;;;;7.50;2.00;;;;;;;-0.72;91.64;98139.50;105068;1273;67037;-76
2022/01/20 06:00:51;;;;;;;12.60;2.10;;;;;;;-0.74;91.65;98139.22;105207;1274;71864;-75
2022/01/20 06:03:41;;;;;;;11.10;2.10;;;;;;;-0.72;91.55;98145.58;104902;1274;59663;-75
2022/01/20 06:06:37;;;;;;;8.70;2.10;;;;;;;-0.71;91.66;98147.45;105189;1273;59596;-75
2022/01/20 06:09:26;;;;;;;7.70;1.80;;;;;;;-0.74;92.77;98165.39;104925;1274;72139;-75
2022/01/20 06:12:16;;;;;;;6.00;1.60;;;;;;;-0.85;94.51;98158.89;104730;1273;65892;-76
2022/01/20 06:15:05;;;;;;;6.40;1.40;;;;;;;-0.92;95.38;98158.11;104798;1273;72964;-73
2022/01/20 06:17:54;;;;;;;5.60;1.30;;;;;;;-1.04;96.21;98158.64;104673;1273;60297;-75
2022/01/20 06:20:48;;;;;;;4.30;1.20;;;;;;;-1.15;96.77;98144.22;105014;1274;60018;-76
2022/01/20 06:23:40;;;;;;;4.40;1.40;;;;;;;-1.22;97.34;98143.54;104809;1273;72261;-75
2022/01/20 06:26:32;;;;;;;6.30;1.30;;;;;;;-1.29;97.40;98145.52;104890;1273;67070;-76
2022/01/20 06:29:22;;;;;;;4.80;1.30;;;;;;;-1.34;98.52;98152.97;104872;1273;73420;-76
2022/01/20 06:32:11;;;;;;;4.00;1.10;;;;;;;-1.39;98.47;98162.66;104712;1273;59767;-77
2022/01/20 06:35:01;;;;;;;4.70;1.30;;;;;;;-1.41;98.86;98173.40;104717;1273;60880;-76
2022/01/20 06:38:09;;;;;;;5.10;1.40;;;;;;;-1.43;98.95;98158.18;104741;1274;73402;-77
2022/01/20 06:45:45;;;;;;;4.30;1.20;;;;;;;-1.54;97.56;98168.73;105516;1273;73556;-77
2022/01/20 06:48:39;;;;;;;3.70;1.00;;;;;;;-1.61;97.15;98173.34;105263;1274;59755;-76
2022/01/20 06:51:57;;;;;;;4.30;1.10;;;;;;;-1.64;96.73;98186.90;104982;1274;60369;-77
2022/01/20 06:54:48;;;;;;;5.00;1.40;;;;;;;-1.65;97.00;98200.52;105000;1273;73796;-78
2022/01/20 06:57:57;;;;;;;5.00;1.20;;;;;;;-1.71;97.71;98203.98;105225;1274;67969;-80
2022/01/20 07:01:07;;;;;;;4.90;1.10;;;;;;;-1.75;97.86;98218.31;105934;1273;71547;-81
2022/01/20 07:04:21;;;;;;;4.00;1.10;;;;;;;-1.83;98.35;98220.83;106121;1273;59797;-81
2022/01/20 07:07:36;;;;;;;4.20;1.20;;;;;;;-1.85;98.49;98238.67;105871;1274;60263;-79
2022/01/20 07:11:02;;;;;;;5.80;1.30;;;;;;;-1.91;97.92;98246.84;105916;1272;1003061;-79
2022/01/20 07:14:18;;;;;;;5.20;1.30;;;;;;;-2.05;96.99;98243.40;107542;1274;67001;-80
2022/01/20 07:17:23;;;;;;;4.90;1.30;;;;;;;-2.12;96.27;98239.11;106151;1273;1003511;-80
2022/01/20 07:20:28;;;;;;;5.30;1.40;;;;;;;-2.19;94.88;98242.45;106902;1274;59683;-79
2022/01/20 07:23:54;;;;;;;5.60;1.20;;;;;;;-2.25;93.92;98237.71;106385;1272;59769;-78
2022/01/20 07:27:12;;;;;;;7.50;1.60;;;;;;;-2.25;93.87;98235.31;106138;1273;71988;-79
2022/01/20 07:30:27;;;;;;;6.00;1.90;;;;;;;-2.24;93.40;98242.05;107573;1273;1002689;-79
2022/01/20 07:33:39;;;;;;;6.10;1.60;;;;;;;-2.29;93.05;98242.83;105047;1273;72891;-78
2022/01/20 07:36:39;;;;;;;5.40;1.40;;;;;;;-2.30;92.81;98252.61;107372;1273;1002337;-79
2022/01/20 07:39:55;;;;;;;5.20;1.30;;;;;;;-2.28;92.10;98256.98;106411;1274;59699;-78
2022/01/20 07:42:59;;;;;;;5.50;1.50;;;;;;;-2.20;91.40;98261.77;106613;1273;71994;-78
2022/01/20 07:46:40;;;;;;;4.60;1.20;;;;;;;-2.05;88.68;98273.35;105765;1273;67672;-78
2022/01/20 07:49:56;;;;;;;7.40;1.70;;;;;;;-1.89;86.68;98283.95;105966;1273;73098;-78
2022/01/20 07:53:07;;;;;;;7.50;1.60;;;;;;;-1.76;83.34;98282.00;105323;1273;59761;-78
2022/01/20 07:56:04;;;;;;;6.20;1.40;;;;;;;-1.66;83.09;98285.46;105253;1274;61163;-79
2022/01/20 07:59:24;;;;;;;5.00;1.30;;;;;;;-1.63;80.71;98293.08;104971;1273;71065;-78
2022/01/20 08:02:32;;;;;;;4.60;1.20;;;;;;;-1.48;78.74;98289.48;105269;1273;68105;-78
2022/01/20 08:05:27;;;;;;;5.20;1.20;;;;;;;-1.45;77.19;98283.40;105086;1272;73116;-79
2022/01/20 08:08:16;;;;;;;6.20;1.20;;;;;;;-1.55;76.20;98282.73;104730;1273;59795;-79
2022/01/20 08:11:15;;;;;;;5.20;1.30;;;;;;;-1.63;76.35;98289.80;105212;1274;61242;-79
2022/01/20 08:14:43;;;;;;;;;;;;;;;;;;;;;
2022/01/20 08:18:10;;;;;;;5.90;1.40;;;;;;;-1.69;75.49;98295.52;105020;1273;68701;-80
2022/01/20 08:21:17;;;;;;;6.70;1.60;;;;;;;-1.59;74.35;98299.50;105392;1273;73295;-78
2022/01/20 08:24:16;;;;;;;6.60;1.70;;;;;;;-1.35;73.56;98294.50;104900;1273;1003676;-79
2022/01/20 08:27:08;;;;;;;6.40;1.70;;;;;;;-1.20;72.57;98298.31;104910;1274;59772;-79
2022/01/20 08:29:58;;;;;;;8.80;1.90;;;;;;;-1.06;71.38;98297.83;105212;1273;72113;-76
2022/01/20 08:32:49;;;;;;;9.10;1.90;;;;;;;-0.84;69.17;98294.02;105130;1273;67060;-76
2022/01/20 08:35:52;;;;;;;20.00;3.30;;;;;;;-1.01;68.54;98289.55;104976;1273;72960;-76
2022/01/20 08:38:47;;;;;;;13.20;3.10;;;;;;;-0.98;68.06;98287.81;105108;1273;59638;-75
2022/01/20 08:41:36;;;;;;;10.10;2.60;;;;;;;-0.59;66.77;98286.23;104933;1273;59655;-75
2022/01/20 08:44:30;;;;;;;10.70;2.70;;;;;;;0.78;65.77;98280.92;104926;1273;71422;-78
2022/01/20 08:47:20;;;;;;;8.20;2.20;;;;;;;2.42;59.90;98278.73;105206;1274;68364;-77
2022/01/20 08:50:12;;;;;;;7.20;2.00;;;;;;;3.57;53.86;98280.88;105060;1273;73184;-77
2022/01/20 08:53:06;;;;;;;6.60;1.40;;;;;;;3.60;51.56;98284.71;104855;1273;59770;-78
2022/01/20 08:56:01;;;;;;;9.00;1.90;;;;;;;3.11;51.53;98281.20;104904;1273;60588;-76
2022/01/20 08:58:53;;;;;;;10.00;1.90;;;;;;;1.96;53.43;98289.74;105079;1273;73929;-76
2022/01/20 09:01:43;;;;;;;4.80;1.20;;;;;;;0.94;56.95;98312.05;105044;1273;68616;-76
2022/01/20 09:04:33;;;;;;;6.50;1.50;;;;;;;0.06;64.65;98311.20;104924;1273;73032;-76
2022/01/20 09:07:43;;;;;;;5.20;1.20;;;;;;;-0.65;67.30;98315.85;104795;1273;60365;-76
2022/01/20 09:10:37;;;;;;;4.20;1.20;;;;;;;-1.16;70.08;98323.85;104753;1273;61245;-76
2022/01/20 09:16:43;;;;;;;5.70;1.50;;;;;;;-0.45;67.20;98313.60;105123;1273;67440;-75
2022/01/20 09:19:34;;;;;;;8.10;1.70;;;;;;;0.20;65.23;98313.64;104958;1274;71893;-75
2022/01/20 09:22:26;;;;;;;8.20;1.40;;;;;;;0.51;62.17;98321.95;104723;1274;59768;-76
2022/01/20 09:25:21;;;;;;;7.90;1.50;;;;;;;-0.03;63.37;98319.27;105023;1274;60426;-76
2022/01/20 09:28:10;;;;;;;5.80;1.30;;;;;;;-0.35;63.65;98319.95;104880;1273;73388;-76
2022/01/20 09:31:00;;;;;;;5.80;1.90;;;;;;;0.21;63.56;98316.34;105285;1273;68476;-76
2022/01/20 09:33:50;;;;;;;5.10;1.60;;;;;;;2.42;58.48;98304.48;105096;1274;72370;-76
2022/01/20 09:36:39;;;;;;;5.90;1.50;;;;;;;4.48;54.20;98306.38;104937;1274;60331;-76
2022/01/20 09:39:28;;;;;;;5.70;1.50;;;;;;;5.92;47.18;98306.61;104805;1274;60958;-77
2022/01/20 09:42:27;;;;;;;5.60;1.70;;;;;;;7.17;43.27;98284.65;105052;1274;73630;-77
2022/01/20 09:45:16;;;;;;;6.80;1.60;;;;;;;8.47;40.15;98283.35;104461;1274;1003766;-77
2022/01/20 09:48:06;;;;;;;6.60;1.50;;;;;;;9.13;34.87;98292.15;105173;1274;73214;-79
2022/01/20 09:51:25;;;;;;;6.70;1.50;;;;;;;9.45;34.12;98293.61;105098;1274;288496;-76
2022/01/20 09:54:20;;;;;;;5.90;1.50;;;;;;;9.90;32.91;98296.77;105409;1274;60161;-76
2022/01/20 09:57:28;;;;;;;6.10;1.40;;;;;;;8.27;34.44;98304.08;105046;1273;72299;-77
2022/01/20 10:00:20;;;;;;;5.90;1.40;;;;;;;6.58;38.30;98315.49;105042;1274;68313;-77
2022/01/20 10:03:18;;;;;;;6.60;1.70;;;;;;;5.50;40.04;98324.78;105002;1271;73001;-77
2022/01/20 10:06:08;;;;;;;6.30;1.30;;;;;;;5.35;39.81;98337.30;105036;1271;59874;-76
2022/01/20 10:09:08;;;;;;;6.20;1.60;;;;;;;3.72;42.50;98345.36;104954;1274;60607;-76
2022/01/20 10:12:34;;;;;;;6.10;1.30;;;;;;;2.43;46.99;98357.31;105530;1271;73637;-76
2022/01/20 10:16:02;;;;;;;6.60;1.60;;;;;;;1.73;50.09;98347.99;105747;1271;67156;-76
2022/01/20 10:19:05;;;;;;;6.80;1.70;;;;;;;2.31;51.15;98339.59;105103;1271;72174;-76
2022/01/20 10:22:14;;;;;;;7.50;1.60;;;;;;;4.91;46.74;98330.62;105219;1271;59640;-77
2022/01/20 10:25:35;;;;;;;6.70;1.60;;;;;;;7.53;40.38;98316.06;106025;1271;59685;-77
2022/01/20 10:28:54;;;;;;;6.40;1.80;;;;;;;9.55;36.71;98312.36;105514;1271;73915;-76
2022/01/20 10:31:51;;;;;;;6.30;1.30;;;;;;;9.35;34.52;98312.21;105267;1274;68310;-77
2022/01/20 10:34:44;;;;;;;6.30;1.70;;;;;;;7.25;37.71;98329.38;104978;1271;72123;-75
2022/01/20 10:38:15;;;;;;;5.70;1.40;;;;;;;5.24;44.82;98333.60;104854;1274;59769;-76
2022/01/20 10:41:09;;;;;;;7.00;1.40;;;;;;;3.42;49.10;98350.44;105146;1271;60411;-76
2022/01/20 10:44:14;;;;;;;6.40;1.30;;;;;;;2.31;51.98;98353.37;105021;1271;72124;-75
2022/01/20 10:47:36;;;;;;;5.90;1.40;;;;;;;1.18;55.62;98364.41;105061;1273;66869;-76
2022/01/20 10:50:35;;;;;;;8.40;2.00;;;;;;;2.49;54.62;98354.55;104993;1274;72572;-76
2022/01/20 10:53:27;;;;;;;6.70;1.60;;;;;;;4.43;50.21;98350.39;104885;1274;59766;-75
2022/01/20 10:56:27;;;;;;;5.60;1.50;;;;;;;3.28;49.44;98348.48;105228;1274;59637;-75
2022/01/20 10:59:17;;;;;;;6.20;1.50;;;;;;;2.32;52.54;98348.59;104984;1274;72004;-74
2022/01/20 11:02:12;;;;;;;8.60;2.70;;;;;;;1.69;54.22;98344.63;104980;1274;67976;-78
2022/01/20 11:05:04;;;;;;;6.40;1.40;;;;;;;1.03;56.83;98345.00;104729;1274;72946;-76
2022/01/20 11:07:57;;;;;;;7.30;1.40;;;;;;;0.92;57.44;98337.84;105017;1273;59868;-75
2022/01/20 11:10:47;;;;;;;7.10;1.50;;;;;;;1.50;56.31;98344.13;105087;1273;59886;-77
2022/01/20 11:14:15;;;;;;;8.00;1.40;;;;;;;2.72;52.59;98334.77;105593;1273;73504;-76
2022/01/20 11:17:05;;;;;;;7.10;1.50;;;;;;;2.38;52.54;98335.23;104800;1273;68362;-76
2022/01/20 11:20:07;;;;;;;6.20;1.70;;;;;;;3.03;52.19;98331.95;105036;1273;72977;-77
2022/01/20 11:23:07;;;;;;;7.50;1.60;;;;;;;4.13;48.70;98323.04;104975;1273;59668;-77
2022/01/20 11:26:07;;;;;;;6.90;1.60;;;;;;;3.78;48.38;98324.91;104771;1273;60643;-78
2022/01/20 11:29:16;;;;;;;7.20;1.80;;;;;;;2.80;49.59;98335.91;105445;1273;72111;-77
2022/01/20 11:32:33;;;;;;;7.00;1.70;;;;;;;1.74;52.13;98344.95;105023;1273;67968;-76
2022/01/20 11:35:44;;;;;;;5.70;1.50;;;;;;;0.95;55.44;98366.66;104944;1273;70751;-76
2022/01/20 11:38:49;;;;;;;7.10;1.40;;;;;;;0.17;59.63;98375.07;105151;1273;59793;-76
2022/01/20 11:41:49;;;;;;;8.30;1.80;;;;;;;-0.21;60.06;98378.56;105086;1273;59568;-77
2022/01/20 11:44:38;;;;;;;7.50;1.60;;;;;;;-0.50;61.47;98380.51;104794;1273;71089;-76
2022/01/20 11:47:33;;;;;;;5.90;1.30;;;;;;;-0.77;64.50;98388.98;105043;1274;68575;-76
2022/01/20 11:50:23;;;;;;;6.00;1.30;;;;;;;-0.27;64.67;98393.91;104959;1273;72531;-76
2022/01/20 11:53:19;;;;;;;5.10;1.30;;;;;;;1.25;60.05;98388.94;105187;1274;59823;-77
2022/01/20 11:56:10;;;;;;;5.70;1.40;;;;;;;2.53;55.59;98382.30;105012;1274;59659;-76
2022/01/20 11:58:59;;;;;;;6.10;1.90;;;;;;;2.12;55.46;98385.86;104909;1273;73594;-76
2022/01/20 12:01:57;;;;;;;6.40;1.30;;;;;;;1.27;60.85;98389.52;104931;1274;67293;-76
2022/01/20 12:04:47;;;;;;;4.90;1.50;;;;;;;0.48;64.92;98390.93;105643;1274;71678;-77
2022/01/20 12:07:49;;;;;;;7.30;1.70;;;;;;;0.06;68.54;98389.33;105306;1273;59749;-77
2022/01/20 12:11:01;;;;;;;6.40;1.90;;;;;;;0.04;69.84;98393.43;105039;1274;60252;-76
2022/01/20 12:13:55;;;;;;;6.80;1.80;;;;;;;-0.35;71.08;98396.64;105181;1273;73431;-76
2022/01/20 12:16:46;;;;;;;7.20;1.90;;;;;;;-0.65;72.32;98397.52;105050;1273;68578;-78
2022/01/20 12:19:44;;;;;;;10.00;2.00;;;;;;;-0.86;72.14;98400.45;104205;1273;1002973;-77
2022/01/20 12:22:43;;;;;;;5.90;1.90;;;;;;;-1.06;72.90;98406.66;105515;1274;59763;-77
2022/01/20 12:25:35;;;;;;;7.50;2.30;;;;;;;-1.28;74.97;98409.84;105239;1273;60366;-77
2022/01/20 12:28:29;;;;;;;7.80;1.80;;;;;;;-1.62;76.73;98422.79;105022;1274;72241;-76
2022/01/20 12:31:18;;;;;;;6.60;1.90;;;;;;;-1.91;79.07;98422.10;104907;1274;68219;-77
2022/01/20 12:34:12;;;;;;;7.70;2.10;;;;;;;-2.15;80.05;98416.70;104277;1273;1003609;-77
2022/01/20 12:37:01;;;;;;;6.80;1.80;;;;;;;-2.27;81.98;98429.14;105483;1274;59613;-77
2022/01/20 12:39:50;;;;;;;6.70;1.70;;;;;;;-2.41;83.65;98425.85;105026;1274;59712;-77
2022/01/20 12:42:42;;;;;;;8.50;2.20;;;;;;;-2.35;83.93;98429.73;104770;1273;74348;-77
2022/01/20 12:49:00;;;;;;;6.60;1.70;;;;;;;-1.81;83.14;98434.61;104668;1273;73220;-76
2022/01/20 12:51:54;;;;;;;6.80;1.70;;;;;;;-1.83;82.96;98452.05;105057;1273;59768;-76
2022/01/20 12:54:43;;;;;;;7.60;2.20;;;;;;;-1.97;84.70;98471.59;104729;1274;60131;-78
2022/01/20 12:57:32;;;;;;;5.80;1.80;;;;;;;-2.08;85.49;98485.70;104762;1273;73598;-77
2022/01/20 13:00:21;;;;;;;6.00;1.60;;;;;;;-2.19;86.41;98483.65;105021;1273;66481;-77
2022/01/20 13:03:12;;;;;;;5.90;1.50;;;;;;;-2.27;87.39;98484.75;104204;1274;1003155;-76
2022/01/20 13:06:11;;;;;;;5.50;1.70;;;;;;;-2.35;87.45;98488.97;105399;1273;59768;-76
2022/01/20 13:09:07;;;;;;;10.30;2.00;;;;;;;-2.41;88.15;98487.03;105354;1274;60378;-77
2022/01/20 13:11:59;;;;;;;6.70;1.80;;;;;;;-2.46;88.48;98487.75;105431;1274;73293;-77
2022/01/20 13:14:51;;;;;;;5.40;1.50;;;;;;;-2.42;87.75;98490.84;105239;1274;67230;-77
2022/01/20 13:17:41;;;;;;;5.30;1.50;;;;;;;-2.37;87.96;98496.52;105350;1273;71802;-77
2022/01/20 13:20:31;;;;;;;6.50;1.30;;;;;;;-2.32;87.60;98495.95;105040;1274;59718;-77
2022/01/20 13:26:09;;;;;;;6.40;1.60;;;;;;;-2.27;86.80;98501.75;105073;1274;73168;-77
2022/01/20 13:29:05;;;;;;;5.50;1.60;;;;;;;-2.27;86.70;98506.48;105086;1273;65987;-77
2022/01/20 13:31:59;;;;;;;6.70;1.80;;;;;;;-2.27;86.88;98522.81;104986;1274;73021;-77
2022/01/20 13:35:07;;;;;;;7.50;1.60;;;;;;;-2.29;86.91;98518.04;105122;1274;59720;-77
2022/01/20 13:38:04;;;;;;;7.70;1.70;;;;;;;-2.26;86.44;98525.88;105091;1274;60745;-77
2022/01/20 13:41:07;;;;;;;7.10;1.70;;;;;;;-2.21;86.29;98531.73;105352;1274;73677;-77
2022/01/20 13:47:10;;;;;;;7.30;1.80;;;;;;;-2.22;85.83;98550.39;105112;1272;72621;-76
2022/01/20 13:50:18;;;;;;;8.70;2.10;;;;;;;-2.29;87.61;98559.36;105122;1274;59653;-77
2022/01/20 13:53:22;;;;;;;6.00;1.50;;;;;;;-2.32;88.59;98563.20;104939;1274;59650;-77
2022/01/20 13:56:11;;;;;;;8.80;1.70;;;;;;;-2.35;88.61;98574.45;104985;1273;73258;-77
2022/01/20 13:59:10;;;;;;;6.70;1.70;;;;;;;-2.37;87.83;98580.27;105009;1274;68800;-77
2022/01/20 14:02:31;;;;;;;6.90;1.60;;;;;;;-2.39;87.46;98586.97;104357;1274;1003269;-76
2022/01/20 14:05:29;;;;;;;8.00;1.50;;;;;;;-2.44;89.10;98587.91;105226;1274;59758;-77
2022/01/20 14:08:22;;;;;;;6.90;1.40;;;;;;;-2.48;89.45;98580.80;105117;1274;60784;-76
2022/01/20 14:11:11;;;;;;;7.70;1.80;;;;;;;-2.53;89.67;98585.02;105130;1274;72976;-77
2022/01/20 14:14:11;;;;;;;7.00;1.50;;;;;;;-2.57;90.10;98585.05;104948;1274;66623;-77
2022/01/20 14:17:06;;;;;;;6.70;1.70;;;;;;;-2.58;90.24;98586.67;105375;1274;72968;-77
2022/01/20 14:19:59;;;;;;;11.00;2.20;;;;;;;-2.60;90.32;98588.65;104734;1275;59774;-76
2022/01/20 14:22:49;;;;;;;10.30;2.20;;;;;;;-2.59;90.09;98597.83;104982;1273;59654;-76
2022/01/20 14:25:38;;;;;;;8.30;1.90;;;;;;;-2.60;90.19;98605.12;104797;1274;72419;-77
2022/01/20 14:28:27;;;;;;;9.20;2.10;;;;;;;-2.59;90.11;98611.54;104919;1274;68237;-77
2022/01/20 14:31:16;;;;;;;7.90;1.90;;;;;;;-2.61;89.49;98624.81;105003;1273;73265;-77
2022/01/20 14:34:05;;;;;;;9.20;2.30;;;;;;;-2.59;89.75;98622.84;105032;1274;59697;-77
2022/01/20 14:36:54;;;;;;;10.00;2.30;;;;;;;-2.59;89.75;98634.27;104947;1273;61126;-76
2022/01/20 14:39:44;;;;;;;5.80;1.70;;;;;;;-2.58;89.80;98633.39;105037;1273;73280;-76
2022/01/20 14:42:32;;;;;;;7.20;2.00;;;;;;;-2.58;90.14;98648.64;105119;1274;68456;-76
2022/01/20 14:45:22;;;;;;;12.70;2.30;;;;;;;-2.61;90.66;98655.05;105239;1274;72493;-76
2022/01/20 14:48:12;;;;;;;7.60;2.00;;;;;;;-2.62;91.07;98659.41;105183;1274;59707;-77
2022/01/20 14:51:00;;;;;;;10.80;2.60;;;;;;;-2.60;90.90;98656.57;104989;1274;60654;-77
2022/01/20 14:53:49;;;;;;;12.60;2.60;;;;;;;-2.58;90.23;98660.44;105027;1274;73361;-76
2022/01/20 14:56:38;;;;;;;8.70;2.00;;;;;;;-2.54;89.44;98668.47;105122;1274;65955;-77
2022/01/20 14:59:30;;;;;;;8.80;2.30;;;;;;;-2.51;89.04;98671.96;104989;1273;72997;-77
2022/01/20 15:02:19;;;;;;;6.80;2.00;;;;;;;-2.50;87.69;98668.95;105357;1274;59720;-77